Oakgrove, Arkansas
Current Conditions -  °F | °C
As of 4:53 PM on Wednesday 17 Dec 2014 (Local Time) from KRUE Reporting Station
Light Rain Light Rain  
Wind Chill: 37°   Ceiling: 8500
Heat Index: 37°   Visibility: 8mi
Dew Point: 34°   Wind: 0mph
Humidity: 89%   Direction: NA
Pressure: 30.21"   Gusts: NA
Location:  35.0362°N, 92.6967°W
Report Text: KRUE 172253Z AUTO 00000KT 8SM -RA BKN085 OVC110 03/01 A3021 RMK AO2 UPB30E36 SLP229 P0006 T00280011
Loading
Personal Weather Stations






























Interactive Weather Map New forecast layout! Learn more

10-Day Weather Forecast

Advertisements
Track Severe Weather on mobile